sensor_id;sensor_type;location;lat;lon;timestamp;pressure;altitude;pressure_sealevel;temperature
74533;BMP180;63012;51.096;-115.366;2022-09-01T00:01:29;86959.60;;;24.70
74533;BMP180;63012;51.096;-115.366;2022-09-01T00:03:58;86962.80;;;24.70
74533;BMP180;63012;51.096;-115.366;2022-09-01T00:06:40;86960.80;;;24.70
74533;BMP180;63012;51.096;-115.366;2022-09-01T00:09:19;86958.60;;;24.70
74533;BMP180;63012;51.096;-115.366;2022-09-01T00:11:51;86952.00;;;24.74
74533;BMP180;63012;51.096;-115.366;2022-09-01T00:14:40;86953.20;;;24.80
74533;BMP180;63012;51.096;-115.366;2022-09-01T00:17:29;86948.20;;;24.80
74533;BMP180;63012;51.096;-115.366;2022-09-01T00:22:37;86941.00;;;24.80
74533;BMP180;63012;51.096;-115.366;2022-09-01T00:27:59;86933.00;;;24.90
74533;BMP180;63012;51.096;-115.366;2022-09-01T00:30:51;86930.00;;;24.90
74533;BMP180;63012;51.096;-115.366;2022-09-01T00:33:39;86929.80;;;24.90
74533;BMP180;63012;51.096;-115.366;2022-09-01T00:36:48;86923.60;;;24.90
74533;BMP180;63012;51.096;-115.366;2022-09-01T00:42:49;86912.60;;;24.90
74533;BMP180;63012;51.096;-115.366;2022-09-01T00:45:41;86905.20;;;24.98
74533;BMP180;63012;51.096;-115.366;2022-09-01T00:48:25;86909.80;;;25.00
74533;BMP180;63012;51.096;-115.366;2022-09-01T00:54:29;86908.20;;;25.00
74533;BMP180;63012;51.096;-115.366;2022-09-01T00:57:40;86908.00;;;25.00
74533;BMP180;63012;51.096;-115.366;2022-09-01T01:07:04;86895.60;;;25.08
74533;BMP180;63012;51.096;-115.366;2022-09-01T01:09:59;86894.60;;;25.10
74533;BMP180;63012;51.096;-115.366;2022-09-01T01:12:33;86902.20;;;25.10
74533;BMP180;63012;51.096;-115.366;2022-09-01T01:15:13;86895.40;;;25.10
74533;BMP180;63012;51.096;-115.366;2022-09-01T01:17:43;86897.20;;;25.10
74533;BMP180;63012;51.096;-115.366;2022-09-01T01:20:17;86890.40;;;25.10
74533;BMP180;63012;51.096;-115.366;2022-09-01T01:24:01;86888.00;;;25.10
74533;BMP180;63012;51.096;-115.366;2022-09-01T01:26:31;86893.60;;;25.10
74533;BMP180;63012;51.096;-115.366;2022-09-01T01:29:03;86890.20;;;25.10
74533;BMP180;63012;51.096;-115.366;2022-09-01T01:31:35;86898.80;;;25.10
74533;BMP180;63012;51.096;-115.366;2022-09-01T01:34:03;86895.20;;;25.10
74533;BMP180;63012;51.096;-115.366;2022-09-01T01:36:36;86892.80;;;25.10
74533;BMP180;63012;51.096;-115.366;2022-09-01T01:39:13;86896.20;;;25.10
74533;BMP180;63012;51.096;-115.366;2022-09-01T01:42:01;86900.40;;;25.10
74533;BMP180;63012;51.096;-115.366;2022-09-01T01:44:31;86896.40;;;25.12
74533;BMP180;63012;51.096;-115.366;2022-09-01T01:47:05;86892.40;;;25.12
74533;BMP180;63012;51.096;-115.366;2022-09-01T01:49:41;86899.60;;;25.12
74533;BMP180;63012;51.096;-115.366;2022-09-01T01:52:23;86900.00;;;25.20
74533;BMP180;63012;51.096;-115.366;2022-09-01T01:54:59;86888.40;;;25.20
74533;BMP180;63012;51.096;-115.366;2022-09-01T01:57:26;86887.40;;;25.20
74533;BMP180;63012;51.096;-115.366;2022-09-01T01:59:57;86883.00;;;25.20
74533;BMP180;63012;51.096;-115.366;2022-09-01T02:02:27;86883.00;;;25.20
74533;BMP180;63012;51.096;-115.366;2022-09-01T02:04:54;86881.60;;;25.20
74533;BMP180;63012;51.096;-115.366;2022-09-01T02:08:13;86882.20;;;25.20
74533;BMP180;63012;51.096;-115.366;2022-09-01T02:10:31;86878.20;;;25.20
74533;BMP180;63012;51.096;-115.366;2022-09-01T02:13:04;86880.40;;;25.20
74533;BMP180;63012;51.096;-115.366;2022-09-01T02:15:48;86887.60;;;25.20
74533;BMP180;63012;51.096;-115.366;2022-09-01T02:18:37;86885.80;;;25.20
74533;BMP180;63012;51.096;-115.366;2022-09-01T02:21:10;86892.20;;;25.20
74533;BMP180;63012;51.096;-115.366;2022-09-01T02:23:49;86893.40;;;25.20
74533;BMP180;63012;51.096;-115.366;2022-09-01T02:26:23;86892.80;;;25.20
74533;BMP180;63012;51.096;-115.366;2022-09-01T02:29:07;86901.60;;;25.20
74533;BMP180;63012;51.096;-115.366;2022-09-01T02:31:47;86894.60;;;25.20
74533;BMP180;63012;51.096;-115.366;2022-09-01T02:34:20;86896.40;;;25.20
74533;BMP180;63012;51.096;-115.366;2022-09-01T02:36:52;86897.60;;;25.20
74533;BMP180;63012;51.096;-115.366;2022-09-01T02:39:27;86893.40;;;25.20
74533;BMP180;63012;51.096;-115.366;2022-09-01T02:42:04;86903.40;;;25.20
74533;BMP180;63012;51.096;-115.366;2022-09-01T02:44:31;86892.60;;;25.20
74533;BMP180;63012;51.096;-115.366;2022-09-01T02:47:11;86902.00;;;25.20
74533;BMP180;63012;51.096;-115.366;2022-09-01T02:49:38;86897.20;;;25.20
74533;BMP180;63012;51.096;-115.366;2022-09-01T02:52:06;86897.00;;;25.20
74533;BMP180;63012;51.096;-115.366;2022-09-01T02:54:42;86891.40;;;25.20
74533;BMP180;63012;51.096;-115.366;2022-09-01T02:57:31;86885.80;;;25.20
74533;BMP180;63012;51.096;-115.366;2022-09-01T03:00:05;86891.80;;;25.20
74533;BMP180;63012;51.096;-115.366;2022-09-01T03:02:51;86887.60;;;25.20
74533;BMP180;63012;51.096;-115.366;2022-09-01T03:05:31;86899.20;;;25.20
74533;BMP180;63012;51.096;-115.366;2022-09-01T03:08:05;86897.20;;;25.20
74533;BMP180;63012;51.096;-115.366;2022-09-01T03:10:45;86900.00;;;25.20
74533;BMP180;63012;51.096;-115.366;2022-09-01T03:13:39;86902.20;;;25.20
74533;BMP180;63012;51.096;-115.366;2022-09-01T03:16:08;86903.60;;;25.20
74533;BMP180;63012;51.096;-115.366;2022-09-01T03:18:37;86906.80;;;25.20
74533;BMP180;63012;51.096;-115.366;2022-09-01T03:21:09;86904.40;;;25.20
74533;BMP180;63012;51.096;-115.366;2022-09-01T03:24:03;86903.20;;;25.20
74533;BMP180;63012;51.096;-115.366;2022-09-01T03:26:50;86905.60;;;25.20
74533;BMP180;63012;51.096;-115.366;2022-09-01T03:29:38;86908.80;;;25.20
74533;BMP180;63012;51.096;-115.366;2022-09-01T03:32:16;86911.80;;;25.20
74533;BMP180;63012;51.096;-115.366;2022-09-01T03:34:52;86906.80;;;25.20
74533;BMP180;63012;51.096;-115.366;2022-09-01T03:37:40;86909.60;;;25.18
74533;BMP180;63012;51.096;-115.366;2022-09-01T03:40:13;86912.20;;;25.16
74533;BMP180;63012;51.096;-115.366;2022-09-01T03:42:45;86909.60;;;25.18
74533;BMP180;63012;51.096;-115.366;2022-09-01T03:45:24;86915.40;;;25.20
74533;BMP180;63012;51.096;-115.366;2022-09-01T03:48:05;86911.80;;;25.20
74533;BMP180;63012;51.096;-115.366;2022-09-01T03:51:02;86906.20;;;25.16
74533;BMP180;63012;51.096;-115.366;2022-09-01T03:53:40;86904.00;;;25.16
74533;BMP180;63012;51.096;-115.366;2022-09-01T03:56:09;86899.60;;;25.12
74533;BMP180;63012;51.096;-115.366;2022-09-01T03:59:00;86897.80;;;25.16
74533;BMP180;63012;51.096;-115.366;2022-09-01T04:01:47;86903.80;;;25.12
74533;BMP180;63012;51.096;-115.366;2022-09-01T04:04:21;86899.00;;;25.12
74533;BMP180;63012;51.096;-115.366;2022-09-01T04:07:11;86898.80;;;25.12
74533;BMP180;63012;51.096;-115.366;2022-09-01T04:09:59;86895.00;;;25.10
74533;BMP180;63012;51.096;-115.366;2022-09-01T04:12:41;86904.20;;;25.10
74533;BMP180;63012;51.096;-115.366;2022-09-01T04:15:09;86899.40;;;25.10
74533;BMP180;63012;51.096;-115.366;2022-09-01T04:18:20;86902.40;;;25.10
74533;BMP180;63012;51.096;-115.366;2022-09-01T04:20:58;86900.60;;;25.10
74533;BMP180;63012;51.096;-115.366;2022-09-01T04:23:32;86897.20;;;25.10
74533;BMP180;63012;51.096;-115.366;2022-09-01T04:26:05;86891.80;;;25.10
74533;BMP180;63012;51.096;-115.366;2022-09-01T04:28:46;86897.40;;;25.10
74533;BMP180;63012;51.096;-115.366;2022-09-01T04:31:43;86891.80;;;25.10
74533;BMP180;63012;51.096;-115.366;2022-09-01T04:34:32;86894.00;;;25.10
74533;BMP180;63012;51.096;-115.366;2022-09-01T04:37:10;86887.60;;;25.10
74533;BMP180;63012;51.096;-115.366;2022-09-01T04:39:53;86897.20;;;25.10
74533;BMP180;63012;51.096;-115.366;2022-09-01T04:42:21;86891.80;;;25.10
74533;BMP180;63012;51.096;-115.366;2022-09-01T04:45:00;86885.40;;;25.10
74533;BMP180;63012;51.096;-115.366;2022-09-01T04:47:47;86891.80;;;25.10
74533;BMP180;63012;51.096;-115.366;2022-09-01T04:50:38;86886.80;;;25.10
74533;BMP180;63012;51.096;-115.366;2022-09-01T04:53:26;86890.40;;;25.10
74533;BMP180;63012;51.096;-115.366;2022-09-01T04:56:10;86893.20;;;25.10
74533;BMP180;63012;51.096;-115.366;2022-09-01T04:59:00;86886.00;;;25.10
74533;BMP180;63012;51.096;-115.366;2022-09-01T05:05:16;86895.40;;;25.10
74533;BMP180;63012;51.096;-115.366;2022-09-01T05:07:58;86893.60;;;25.10
74533;BMP180;63012;51.096;-115.366;2022-09-01T05:10:30;86893.80;;;25.10
74533;BMP180;63012;51.096;-115.366;2022-09-01T05:13:11;86894.60;;;25.06
74533;BMP180;63012;51.096;-115.366;2022-09-01T05:18:43;86891.60;;;25.00
74533;BMP180;63012;51.096;-115.366;2022-09-01T05:21:16;86872.60;;;25.00
74533;BMP180;63012;51.096;-115.366;2022-09-01T05:23:50;86878.00;;;25.00
74533;BMP180;63012;51.096;-115.366;2022-09-01T05:26:31;86874.60;;;25.00
74533;BMP180;63012;51.096;-115.366;2022-09-01T05:29:10;86879.40;;;25.00
74533;BMP180;63012;51.096;-115.366;2022-09-01T05:31:51;86883.80;;;25.00
74533;BMP180;63012;51.096;-115.366;2022-09-01T05:34:31;86870.40;;;25.00
74533;BMP180;63012;51.096;-115.366;2022-09-01T05:37:03;86869.60;;;25.00
74533;BMP180;63012;51.096;-115.366;2022-09-01T05:39:36;86875.00;;;25.00
74533;BMP180;63012;51.096;-115.366;2022-09-01T05:42:06;86873.00;;;25.00
74533;BMP180;63012;51.096;-115.366;2022-09-01T05:44:46;86872.80;;;25.00
74533;BMP180;63012;51.096;-115.366;2022-09-01T05:47:27;86867.60;;;25.00
74533;BMP180;63012;51.096;-115.366;2022-09-01T05:50:00;86862.20;;;25.00
74533;BMP180;63012;51.096;-115.366;2022-09-01T05:52:33;86859.20;;;25.00
74533;BMP180;63012;51.096;-115.366;2022-09-01T05:55:31;86851.00;;;25.00
74533;BMP180;63012;51.096;-115.366;2022-09-01T05:58:05;86847.20;;;25.00
74533;BMP180;63012;51.096;-115.366;2022-09-01T06:00:42;86848.00;;;24.98
74533;BMP180;63012;51.096;-115.366;2022-09-01T06:03:28;86853.80;;;24.92
74533;BMP180;63012;51.096;-115.366;2022-09-01T06:06:03;86847.20;;;24.92
74533;BMP180;63012;51.096;-115.366;2022-09-01T06:08:44;86848.00;;;24.90
74533;BMP180;63012;51.096;-115.366;2022-09-01T06:11:18;86843.60;;;24.90
74533;BMP180;63012;51.096;-115.366;2022-09-01T06:17:11;86840.00;;;24.90
74533;BMP180;63012;51.096;-115.366;2022-09-01T06:19:48;86839.80;;;24.90
74533;BMP180;63012;51.096;-115.366;2022-09-01T06:22:47;86843.20;;;24.90
74533;BMP180;63012;51.096;-115.366;2022-09-01T06:25:29;86828.20;;;24.90
74533;BMP180;63012;51.096;-115.366;2022-09-01T06:28:00;86835.00;;;24.90
74533;BMP180;63012;51.096;-115.366;2022-09-01T06:30:40;86832.00;;;24.90
74533;BMP180;63012;51.096;-115.366;2022-09-01T06:33:15;86825.80;;;24.88
74533;BMP180;63012;51.096;-115.366;2022-09-01T06:38:37;86819.20;;;24.80
74533;BMP180;63012;51.096;-115.366;2022-09-01T06:41:07;86824.40;;;24.80
74533;BMP180;63012;51.096;-115.366;2022-09-01T06:43:58;86823.60;;;24.80
74533;BMP180;63012;51.096;-115.366;2022-09-01T06:46:41;86825.60;;;24.80
74533;BMP180;63012;51.096;-115.366;2022-09-01T06:49:10;86826.00;;;24.80
74533;BMP180;63012;51.096;-115.366;2022-09-01T06:51:58;86824.20;;;24.80
74533;BMP180;63012;51.096;-115.366;2022-09-01T06:54:35;86815.80;;;24.80
74533;BMP180;63012;51.096;-115.366;2022-09-01T06:57:11;86817.00;;;24.80
74533;BMP180;63012;51.096;-115.366;2022-09-01T06:59:56;86806.40;;;24.76
74533;BMP180;63012;51.096;-115.366;2022-09-01T07:02:44;86814.00;;;24.70
74533;BMP180;63012;51.096;-115.366;2022-09-01T07:05:12;86811.60;;;24.70
74533;BMP180;63012;51.096;-115.366;2022-09-01T07:08:02;86812.00;;;24.70
74533;BMP180;63012;51.096;-115.366;2022-09-01T07:10:52;86814.60;;;24.70
74533;BMP180;63012;51.096;-115.366;2022-09-01T07:13:54;86822.20;;;24.70
74533;BMP180;63012;51.096;-115.366;2022-09-01T07:16:26;86811.00;;;24.70
74533;BMP180;63012;51.096;-115.366;2022-09-01T07:19:41;86807.60;;;24.70
74533;BMP180;63012;51.096;-115.366;2022-09-01T07:22:22;86811.60;;;24.70
74533;BMP180;63012;51.096;-115.366;2022-09-01T07:24:52;86809.60;;;24.70
74533;BMP180;63012;51.096;-115.366;2022-09-01T07:27:54;86805.60;;;24.70
74533;BMP180;63012;51.096;-115.366;2022-09-01T07:30:48;86808.40;;;24.70
74533;BMP180;63012;51.096;-115.366;2022-09-01T07:33:24;86803.00;;;24.70
74533;BMP180;63012;51.096;-115.366;2022-09-01T07:36:10;86790.40;;;24.70
74533;BMP180;63012;51.096;-115.366;2022-09-01T07:38:38;86792.60;;;24.66
74533;BMP180;63012;51.096;-115.366;2022-09-01T07:41:26;86791.60;;;24.60
74533;BMP180;63012;51.096;-115.366;2022-09-01T07:44:19;86787.80;;;24.60
74533;BMP180;63012;51.096;-115.366;2022-09-01T07:46:49;86795.40;;;24.60
74533;BMP180;63012;51.096;-115.366;2022-09-01T07:49:20;86790.60;;;24.60
74533;BMP180;63012;51.096;-115.366;2022-09-01T07:54:40;86786.80;;;24.60
74533;BMP180;63012;51.096;-115.366;2022-09-01T07:57:10;86785.60;;;24.60
74533;BMP180;63012;51.096;-115.366;2022-09-01T07:59:44;86785.20;;;24.60
74533;BMP180;63012;51.096;-115.366;2022-09-01T08:02:14;86779.00;;;24.54
74533;BMP180;63012;51.096;-115.366;2022-09-01T08:05:09;86782.20;;;24.52
74533;BMP180;63012;51.096;-115.366;2022-09-01T08:07:41;86780.80;;;24.50
74533;BMP180;63012;51.096;-115.366;2022-09-01T08:10:29;86778.40;;;24.50
74533;BMP180;63012;51.096;-115.366;2022-09-01T08:13:17;86779.20;;;24.50
74533;BMP180;63012;51.096;-115.366;2022-09-01T08:16:09;86769.40;;;24.50
74533;BMP180;63012;51.096;-115.366;2022-09-01T08:18:42;86768.80;;;24.50
74533;BMP180;63012;51.096;-115.366;2022-09-01T08:21:50;86774.00;;;24.50
74533;BMP180;63012;51.096;-115.366;2022-09-01T08:24:38;86772.20;;;24.50
74533;BMP180;63012;51.096;-115.366;2022-09-01T08:27:17;86773.60;;;24.50
74533;BMP180;63012;51.096;-115.366;2022-09-01T08:30:21;86775.60;;;24.50
74533;BMP180;63012;51.096;-115.366;2022-09-01T08:33:19;86780.00;;;24.50
74533;BMP180;63012;51.096;-115.366;2022-09-01T08:36:10;86781.20;;;24.50
74533;BMP180;63012;51.096;-115.366;2022-09-01T08:42:14;86782.80;;;24.40
74533;BMP180;63012;51.096;-115.366;2022-09-01T08:45:50;86778.60;;;24.40
74533;BMP180;63012;51.096;-115.366;2022-09-01T08:49:07;86779.60;;;24.40
74533;BMP180;63012;51.096;-115.366;2022-09-01T08:55:21;86774.80;;;24.40
74533;BMP180;63012;51.096;-115.366;2022-09-01T08:58:31;86769.20;;;24.40
74533;BMP180;63012;51.096;-115.366;2022-09-01T09:12:34;86779.20;;;24.30
74533;BMP180;63012;51.096;-115.366;2022-09-01T09:15:46;86782.00;;;24.30
74533;BMP180;63012;51.096;-115.366;2022-09-01T09:19:18;86777.00;;;24.30
74533;BMP180;63012;51.096;-115.366;2022-09-01T09:25:16;86774.40;;;24.30
74533;BMP180;63012;51.096;-115.366;2022-09-01T09:28:20;86775.80;;;24.30
74533;BMP180;63012;51.096;-115.366;2022-09-01T09:30:47;86775.40;;;24.30
74533;BMP180;63012;51.096;-115.366;2022-09-01T09:34:07;86770.20;;;24.28
74533;BMP180;63012;51.096;-115.366;2022-09-01T09:37:55;86773.40;;;24.24
74533;BMP180;63012;51.096;-115.366;2022-09-01T09:41:22;86775.20;;;24.20
74533;BMP180;63012;51.096;-115.366;2022-09-01T09:44:46;86775.00;;;24.20
74533;BMP180;63012;51.096;-115.366;2022-09-01T09:48:02;86773.00;;;24.20
74533;BMP180;63012;51.096;-115.366;2022-09-01T09:54:40;86777.80;;;24.20
74533;BMP180;63012;51.096;-115.366;2022-09-01T09:57:28;86770.20;;;24.20
74533;BMP180;63012;51.096;-115.366;2022-09-01T10:03:40;86774.80;;;24.20
74533;BMP180;63012;51.096;-115.366;2022-09-01T10:07:21;86769.80;;;24.20
74533;BMP180;63012;51.096;-115.366;2022-09-01T10:10:25;86763.80;;;24.14
74533;BMP180;63012;51.096;-115.366;2022-09-01T10:13:18;86766.20;;;24.10
74533;BMP180;63012;51.096;-115.366;2022-09-01T10:16:26;86764.40;;;24.10
74533;BMP180;63012;51.096;-115.366;2022-09-01T10:19:23;86757.60;;;24.10
74533;BMP180;63012;51.096;-115.366;2022-09-01T10:22:20;86761.60;;;24.10
74533;BMP180;63012;51.096;-115.366;2022-09-01T10:25:27;86757.20;;;24.10
74533;BMP180;63012;51.096;-115.366;2022-09-01T10:28:20;86755.60;;;24.10
74533;BMP180;63012;51.096;-115.366;2022-09-01T10:34:00;86760.00;;;24.10
74533;BMP180;63012;51.096;-115.366;2022-09-01T10:36:51;86757.20;;;24.10
74533;BMP180;63012;51.096;-115.366;2022-09-01T10:43:26;86748.60;;;24.00
74533;BMP180;63012;51.096;-115.366;2022-09-01T10:56:48;86749.00;;;24.00
74533;BMP180;63012;51.096;-115.366;2022-09-01T10:59:47;86741.20;;;24.00
74533;BMP180;63012;51.096;-115.366;2022-09-01T11:03:17;86742.60;;;24.00
74533;BMP180;63012;51.096;-115.366;2022-09-01T11:06:30;86744.00;;;24.00
74533;BMP180;63012;51.096;-115.366;2022-09-01T11:20:25;86722.80;;;23.90
74533;BMP180;63012;51.096;-115.366;2022-09-01T11:23:25;86718.00;;;23.90
74533;BMP180;63012;51.096;-115.366;2022-09-01T11:30:17;86714.00;;;23.90
74533;BMP180;63012;51.096;-115.366;2022-09-01T11:36:15;86715.60;;;23.90
74533;BMP180;63012;51.096;-115.366;2022-09-01T11:46:04;86707.80;;;23.82
74533;BMP180;63012;51.096;-115.366;2022-09-01T11:52:16;86704.20;;;23.80
74533;BMP180;63012;51.096;-115.366;2022-09-01T11:54:50;86713.40;;;23.80
74533;BMP180;63012;51.096;-115.366;2022-09-01T11:57:40;86713.80;;;23.80
74533;BMP180;63012;51.096;-115.366;2022-09-01T12:01:33;86726.80;;;23.80
74533;BMP180;63012;51.096;-115.366;2022-09-01T12:04:25;86724.60;;;23.80
74533;BMP180;63012;51.096;-115.366;2022-09-01T12:11:18;86721.20;;;23.80
74533;BMP180;63012;51.096;-115.366;2022-09-01T12:14:21;86715.00;;;23.80
74533;BMP180;63012;51.096;-115.366;2022-09-01T12:18:07;86713.20;;;23.74
74533;BMP180;63012;51.096;-115.366;2022-09-01T12:20:54;86712.00;;;23.70
74533;BMP180;63012;51.096;-115.366;2022-09-01T12:24:31;86719.00;;;23.70
74533;BMP180;63012;51.096;-115.366;2022-09-01T12:27:31;86724.60;;;23.70
74533;BMP180;63012;51.096;-115.366;2022-09-01T12:30:26;86731.40;;;23.70
74533;BMP180;63012;51.096;-115.366;2022-09-01T12:33:09;86719.80;;;23.70
74533;BMP180;63012;51.096;-115.366;2022-09-01T12:36:28;86721.00;;;23.70
74533;BMP180;63012;51.096;-115.366;2022-09-01T12:39:43;86727.60;;;23.70
74533;BMP180;63012;51.096;-115.366;2022-09-01T12:42:28;86721.20;;;23.70
74533;BMP180;63012;51.096;-115.366;2022-09-01T12:45:56;86720.40;;;23.70
74533;BMP180;63012;51.096;-115.366;2022-09-01T12:48:39;86720.20;;;23.70
74533;BMP180;63012;51.096;-115.366;2022-09-01T12:51:47;86726.20;;;23.70
74533;BMP180;63012;51.096;-115.366;2022-09-01T12:54:27;86722.40;;;23.70
74533;BMP180;63012;51.096;-115.366;2022-09-01T12:57:31;86723.20;;;23.70
74533;BMP180;63012;51.096;-115.366;2022-09-01T13:00:46;86721.00;;;23.70
74533;BMP180;63012;51.096;-115.366;2022-09-01T13:03:48;86729.40;;;23.64
74533;BMP180;63012;51.096;-115.366;2022-09-01T13:10:03;86734.20;;;23.60
74533;BMP180;63012;51.096;-115.366;2022-09-01T13:13:00;86727.60;;;23.60
74533;BMP180;63012;51.096;-115.366;2022-09-01T13:15:46;86727.80;;;23.60
74533;BMP180;63012;51.096;-115.366;2022-09-01T13:18:16;86735.20;;;23.60
74533;BMP180;63012;51.096;-115.366;2022-09-01T13:20:59;86731.40;;;23.60
74533;BMP180;63012;51.096;-115.366;2022-09-01T13:23:46;86734.40;;;23.50
74533;BMP180;63012;51.096;-115.366;2022-09-01T13:29:35;86753.60;;;23.40
74533;BMP180;63012;51.096;-115.366;2022-09-01T13:32:11;86751.20;;;23.40
74533;BMP180;63012;51.096;-115.366;2022-09-01T13:34:51;86752.00;;;23.30
74533;BMP180;63012;51.096;-115.366;2022-09-01T13:37:22;86758.00;;;23.26
74533;BMP180;63012;51.096;-115.366;2022-09-01T13:40:21;86760.20;;;23.20
74533;BMP180;63012;51.096;-115.366;2022-09-01T13:43:04;86765.40;;;23.10
74533;BMP180;63012;51.096;-115.366;2022-09-01T13:49:15;86787.60;;;23.00
74533;BMP180;63012;51.096;-115.366;2022-09-01T13:52:11;86795.20;;;23.00
74533;BMP180;63012;51.096;-115.366;2022-09-01T13:54:48;86795.40;;;22.90
74533;BMP180;63012;51.096;-115.366;2022-09-01T13:57:47;86789.20;;;22.80
74533;BMP180;63012;51.096;-115.366;2022-09-01T14:00:30;86791.80;;;22.80
74533;BMP180;63012;51.096;-115.366;2022-09-01T14:03:17;86795.80;;;22.70
74533;BMP180;63012;51.096;-115.366;2022-09-01T14:06:10;86812.00;;;22.70
74533;BMP180;63012;51.096;-115.366;2022-09-01T14:09:27;86806.60;;;22.70
74533;BMP180;63012;51.096;-115.366;2022-09-01T14:12:34;86802.60;;;22.60
74533;BMP180;63012;51.096;-115.366;2022-09-01T14:15:12;86809.40;;;22.60
74533;BMP180;63012;51.096;-115.366;2022-09-01T14:17:46;86816.20;;;22.58
74533;BMP180;63012;51.096;-115.366;2022-09-01T14:20:33;86820.80;;;22.50
74533;BMP180;63012;51.096;-115.366;2022-09-01T14:23:51;86824.80;;;22.50
74533;BMP180;63012;51.096;-115.366;2022-09-01T14:26:40;86819.80;;;22.50
74533;BMP180;63012;51.096;-115.366;2022-09-01T14:29:27;86826.80;;;22.42
74533;BMP180;63012;51.096;-115.366;2022-09-01T14:32:22;86829.40;;;22.40
74533;BMP180;63012;51.096;-115.366;2022-09-01T14:35:15;86834.00;;;22.40
74533;BMP180;63012;51.096;-115.366;2022-09-01T14:37:48;86827.20;;;22.40
74533;BMP180;63012;51.096;-115.366;2022-09-01T14:40:21;86832.40;;;22.40
74533;BMP180;63012;51.096;-115.366;2022-09-01T14:42:55;86832.40;;;22.40
74533;BMP180;63012;51.096;-115.366;2022-09-01T14:45:35;86830.00;;;22.30
74533;BMP180;63012;51.096;-115.366;2022-09-01T14:48:24;86826.60;;;22.30
74533;BMP180;63012;51.096;-115.366;2022-09-01T14:54:09;86828.80;;;22.30
74533;BMP180;63012;51.096;-115.366;2022-09-01T14:57:02;86831.60;;;22.28
74533;BMP180;63012;51.096;-115.366;2022-09-01T14:59:56;86830.00;;;22.20
74533;BMP180;63012;51.096;-115.366;2022-09-01T15:03:14;86831.20;;;22.20
74533;BMP180;63012;51.096;-115.366;2022-09-01T15:06:03;86827.00;;;22.20
74533;BMP180;63012;51.096;-115.366;2022-09-01T15:09:07;86829.40;;;22.20
74533;BMP180;63012;51.096;-115.366;2022-09-01T15:11:34;86837.80;;;22.20
74533;BMP180;63012;51.096;-115.366;2022-09-01T15:14:19;86836.00;;;22.20
74533;BMP180;63012;51.096;-115.366;2022-09-01T15:24:15;86845.40;;;22.16
74533;BMP180;63012;51.096;-115.366;2022-09-01T15:27:07;86834.40;;;22.10
74533;BMP180;63012;51.096;-115.366;2022-09-01T15:30:35;86834.00;;;22.10
74533;BMP180;63012;51.096;-115.366;2022-09-01T15:33:38;86838.40;;;22.10
74533;BMP180;63012;51.096;-115.366;2022-09-01T15:36:36;86841.40;;;22.10
74533;BMP180;63012;51.096;-115.366;2022-09-01T15:39:37;86838.00;;;22.10
74533;BMP180;63012;51.096;-115.366;2022-09-01T15:45:45;86839.00;;;22.10
74533;BMP180;63012;51.096;-115.366;2022-09-01T15:49:08;86829.20;;;22.10
74533;BMP180;63012;51.096;-115.366;2022-09-01T15:52:34;86838.40;;;22.10
74533;BMP180;63012;51.096;-115.366;2022-09-01T15:55:17;86846.40;;;22.10
74533;BMP180;63012;51.096;-115.366;2022-09-01T15:58:04;86851.40;;;22.16
74533;BMP180;63012;51.096;-115.366;2022-09-01T16:00:59;86846.20;;;22.20
74533;BMP180;63012;51.096;-115.366;2022-09-01T16:04:07;86851.40;;;22.20
74533;BMP180;63012;51.096;-115.366;2022-09-01T16:06:40;86857.00;;;22.20
74533;BMP180;63012;51.096;-115.366;2022-09-01T16:09:16;86852.40;;;22.20
74533;BMP180;63012;51.096;-115.366;2022-09-01T16:11:47;86850.60;;;22.20
74533;BMP180;63012;51.096;-115.366;2022-09-01T16:14:14;86844.80;;;22.20
74533;BMP180;63012;51.096;-115.366;2022-09-01T16:20:01;86839.20;;;22.28
74533;BMP180;63012;51.096;-115.366;2022-09-01T16:23:29;86840.80;;;22.30
74533;BMP180;63012;51.096;-115.366;2022-09-01T16:26:05;86833.80;;;22.30
74533;BMP180;63012;51.096;-115.366;2022-09-01T16:32:15;86840.00;;;22.30
74533;BMP180;63012;51.096;-115.366;2022-09-01T16:35:27;86836.80;;;22.30
74533;BMP180;63012;51.096;-115.366;2022-09-01T16:46:30;86829.00;;;22.40
74533;BMP180;63012;51.096;-115.366;2022-09-01T17:06:56;86841.00;;;22.44
74533;BMP180;63012;51.096;-115.366;2022-09-01T17:17:10;86837.60;;;22.50
74533;BMP180;63012;51.096;-115.366;2022-09-01T17:27:02;86830.00;;;22.52
74533;BMP180;63012;51.096;-115.366;2022-09-01T17:30:27;86840.80;;;22.60
74533;BMP180;63012;51.096;-115.366;2022-09-01T17:37:38;86840.40;;;22.60
74533;BMP180;63012;51.096;-115.366;2022-09-01T17:41:06;86840.40;;;22.60
74533;BMP180;63012;51.096;-115.366;2022-09-01T18:09:03;86837.40;;;22.70
74533;BMP180;63012;51.096;-115.366;2022-09-01T18:12:03;86828.80;;;22.70
74533;BMP180;63012;51.096;-115.366;2022-09-01T18:15:00;86843.00;;;22.70
74533;BMP180;63012;51.096;-115.366;2022-09-01T18:17:49;86842.60;;;22.70
74533;BMP180;63012;51.096;-115.366;2022-09-01T18:20:43;86844.40;;;22.78
74533;BMP180;63012;51.096;-115.366;2022-09-01T18:23:18;86842.40;;;22.80
74533;BMP180;63012;51.096;-115.366;2022-09-01T18:26:02;86846.60;;;22.80
74533;BMP180;63012;51.096;-115.366;2022-09-01T18:28:50;86851.20;;;22.80
74533;BMP180;63012;51.096;-115.366;2022-09-01T18:46:46;86844.40;;;22.90
74533;BMP180;63012;51.096;-115.366;2022-09-01T18:49:57;86843.00;;;22.90
74533;BMP180;63012;51.096;-115.366;2022-09-01T18:53:17;86847.80;;;22.90
74533;BMP180;63012;51.096;-115.366;2022-09-01T18:56:53;86849.80;;;22.90
74533;BMP180;63012;51.096;-115.366;2022-09-01T19:00:04;86846.80;;;22.96
74533;BMP180;63012;51.096;-115.366;2022-09-01T19:03:02;86842.00;;;23.00
74533;BMP180;63012;51.096;-115.366;2022-09-01T19:10:12;86834.40;;;23.00
74533;BMP180;63012;51.096;-115.366;2022-09-01T19:20:04;86835.60;;;23.10
74533;BMP180;63012;51.096;-115.366;2022-09-01T19:23:35;86831.60;;;23.10
74533;BMP180;63012;51.096;-115.366;2022-09-01T19:26:44;86838.00;;;23.20